CheckWX is a tool to help pilots better visualize weather data.  It is not intended as a substitute for an official pre-flight weather briefing.

12:43:19 UTC

1A6 METAR
Middlesboro-Bell County Airport
Middlesboro, Kentucky, USA
Current

8 mins ago

K1A6 201235Z AUTO 00000KT 10SM OVC029 21/18 A3005 RMK AO2 T02130176
Observed
May-20 @ 12:35 UTC
Visibility
10 SM
Flight Rules
MVFR
Cloud Levels
  • Overcast at 2,900' AGL
Temperature
21°C / 70°F
Dewpoint
18°C / 64°F
Humidity
83%
Altimeter
30.05" Hg
Pressure
1017.62 hPa
Previous

28 mins ago

K1A6 201215Z AUTO 00000KT 10SM BKN027 21/17 A3004 RMK AO2 T02080173
Observed
May-20 @ 12:15 UTC
Visibility
10 SM
Flight Rules
MVFR
Cloud Levels
  • Broken at 2,700' AGL
Temperature
21°C / 70°F
Dewpoint
17°C / 63°F
Humidity
78%
Altimeter
30.04" Hg
Pressure
1017.32 hPa
Previous

48 mins ago

K1A6 201155Z AUTO 00000KT 10SM BKN027 BKN032 20/17 A3004 RMK AO2 T02020173 10245 20202
Observed
May-20 @ 11:55 UTC
Visibility
10 SM
Flight Rules
MVFR
Cloud Levels
  • Broken at 2,700' AGL
  • Broken at 3,200' AGL
Temperature
20°C / 68°F
Dewpoint
17°C / 63°F
Humidity
83%
Altimeter
30.04" Hg
Pressure
1017.32 hPa